createdAt,value
2023-05-14T00:00:49.485Z,83.73
2023-05-14T00:03:16.982Z,83.68
2023-05-14T00:05:44.368Z,83.89
2023-05-14T00:08:11.663Z,83.37
2023-05-14T00:10:38.964Z,83.40
2023-05-14T00:13:06.203Z,83.96
2023-05-14T00:15:34.565Z,83.77
2023-05-14T00:18:02.046Z,84.06
2023-05-14T00:20:29.340Z,83.37
2023-05-14T00:22:56.655Z,83.74
2023-05-14T00:25:23.965Z,83.87
2023-05-14T00:27:51.260Z,83.81
2023-05-14T00:30:18.601Z,83.68
2023-05-14T00:32:45.997Z,84.14
2023-05-14T00:35:13.335Z,83.60
2023-05-14T00:37:40.579Z,83.40
2023-05-14T00:40:08.744Z,83.49
2023-05-14T00:42:36.066Z,83.13
2023-05-14T00:45:03.464Z,83.51
2023-05-14T00:47:30.799Z,83.61
2023-05-14T00:49:58.096Z,83.47
2023-05-14T00:52:25.427Z,83.96
2023-05-14T00:54:52.721Z,84.12
2023-05-14T00:57:20.024Z,83.23
2023-05-14T00:59:47.311Z,83.41
2023-05-14T01:02:14.594Z,83.48
2023-05-14T01:04:41.860Z,84.05
2023-05-14T01:07:27.730Z,83.81
2023-05-14T01:10:04.182Z,84.53
2023-05-14T01:12:43.953Z,83.92
2023-05-14T01:15:12.762Z,84.46
2023-05-14T01:17:46.298Z,83.67
2023-05-14T01:20:13.590Z,84.27
2023-05-14T01:22:40.859Z,84.06
2023-05-14T01:25:08.655Z,83.85
2023-05-14T01:27:40.439Z,84.01
2023-05-14T01:30:15.186Z,84.63
2023-05-14T01:32:42.459Z,84.03
2023-05-14T01:35:09.850Z,84.37
2023-05-14T01:37:37.176Z,85.00
2023-05-14T01:40:05.738Z,85.15
2023-05-14T01:42:32.976Z,84.74
2023-05-14T01:45:00.262Z,84.66
2023-05-14T01:47:27.541Z,84.53
2023-05-14T01:49:55.089Z,84.07
2023-05-14T01:52:22.407Z,84.02
2023-05-14T01:54:50.036Z,83.84
2023-05-14T01:57:17.312Z,85.11
2023-05-14T01:59:44.587Z,85.50
2023-05-14T02:02:11.922Z,84.44
2023-05-14T02:04:39.239Z,84.82
2023-05-14T02:07:06.493Z,84.83
2023-05-14T02:09:33.811Z,85.51
2023-05-14T02:12:01.324Z,84.90
2023-05-14T02:14:28.565Z,84.67
2023-05-14T02:16:56.336Z,85.02
2023-05-14T02:19:24.352Z,86.22
2023-05-14T02:21:51.678Z,85.71
2023-05-14T02:24:19.007Z,85.65
2023-05-14T02:26:46.254Z,86.03
2023-05-14T02:29:16.504Z,85.85
2023-05-14T02:31:43.861Z,86.02
2023-05-14T02:34:11.177Z,86.17
2023-05-14T02:36:38.438Z,86.63
2023-05-14T02:39:05.764Z,86.29
2023-05-14T02:41:33.161Z,86.21
2023-05-14T02:44:00.489Z,86.65
2023-05-14T02:46:27.829Z,85.66
2023-05-14T02:48:55.683Z,85.91
2023-05-14T02:51:23.057Z,86.32
2023-05-14T02:53:50.468Z,86.31
2023-05-14T02:56:17.699Z,85.87
2023-05-14T02:58:44.963Z,85.96
2023-05-14T03:01:12.446Z,86.40
2023-05-14T03:03:40.205Z,87.05
2023-05-14T03:06:08.154Z,87.26
2023-05-14T03:08:35.427Z,86.74
2023-05-14T03:11:02.944Z,85.59
2023-05-14T03:13:30.216Z,86.20
2023-05-14T03:15:57.515Z,85.52
2023-05-14T03:18:24.899Z,85.20
2023-05-14T03:20:52.328Z,85.45
2023-05-14T03:23:19.614Z,85.00
2023-05-14T03:25:46.994Z,85.64
2023-05-14T03:28:14.275Z,85.28
2023-05-14T03:30:41.642Z,85.44
2023-05-14T03:33:10.343Z,84.81
2023-05-14T03:35:37.653Z,84.04
2023-05-14T03:38:04.898Z,85.70
2023-05-14T03:40:34.861Z,84.26
2023-05-14T03:43:02.141Z,83.96
2023-05-14T03:45:30.475Z,84.66
2023-05-14T03:47:59.461Z,84.76
2023-05-14T03:50:27.262Z,84.34
2023-05-14T03:52:55.091Z,84.88
2023-05-14T03:55:22.491Z,85.15
2023-05-14T03:57:49.806Z,84.43
2023-05-14T04:00:17.408Z,84.70
2023-05-14T04:02:44.758Z,83.99
2023-05-14T04:05:12.126Z,84.42
2023-05-14T04:07:39.375Z,83.92
2023-05-14T04:10:07.202Z,83.11
2023-05-14T04:12:36.303Z,83.34
2023-05-14T04:15:04.918Z,82.14
2023-05-14T04:17:33.487Z,82.34
2023-05-14T04:20:02.145Z,81.26
2023-05-14T04:22:29.412Z,81.33
2023-05-14T04:24:56.664Z,80.91
2023-05-14T04:27:23.934Z,81.21
2023-05-14T04:29:51.209Z,80.43
2023-05-14T04:32:18.527Z,80.06
2023-05-14T04:34:46.922Z,80.03
2023-05-14T04:37:14.255Z,79.76
2023-05-14T04:39:41.519Z,80.24
2023-05-14T04:42:08.759Z,79.02
2023-05-14T04:44:36.742Z,78.88
2023-05-14T04:47:04.509Z,78.69
2023-05-14T04:49:31.963Z,78.19
2023-05-14T04:51:59.466Z,77.65
2023-05-14T04:54:26.856Z,76.91
2023-05-14T04:56:55.919Z,76.63
2023-05-14T04:59:23.254Z,76.63
2023-05-14T05:01:51.708Z,75.99
2023-05-14T05:04:19.073Z,75.73
2023-05-14T05:06:46.374Z,76.13
2023-05-14T05:09:14.182Z,75.23
2023-05-14T05:11:41.473Z,74.27
2023-05-14T05:14:08.771Z,74.03
2023-05-14T05:16:36.187Z,73.12
2023-05-14T05:19:03.529Z,72.38
2023-05-14T05:21:30.839Z,72.36
2023-05-14T05:23:58.089Z,71.33
2023-05-14T05:26:26.855Z,70.90
2023-05-14T05:28:54.255Z,70.14
2023-05-14T05:31:21.576Z,68.70
2023-05-14T05:33:48.861Z,67.94
2023-05-14T05:36:16.136Z,67.80
2023-05-14T05:38:43.486Z,67.13
2023-05-14T05:41:10.754Z,66.86
2023-05-14T05:43:37.992Z,67.35
2023-05-14T05:46:05.525Z,66.84
2023-05-14T05:48:32.816Z,66.35
2023-05-14T05:51:00.147Z,65.31
2023-05-14T05:53:27.384Z,65.12
2023-05-14T05:55:54.643Z,64.27
2023-05-14T05:58:21.948Z,64.21
2023-05-14T06:00:49.243Z,64.63
2023-05-14T06:03:16.629Z,64.50
2023-05-14T06:05:43.968Z,65.05
2023-05-14T06:08:11.296Z,64.30
2023-05-14T06:10:38.657Z,64.29
2023-05-14T06:13:06.892Z,63.45
2023-05-14T06:15:34.259Z,62.88
2023-05-14T06:18:01.561Z,62.75
2023-05-14T06:20:28.962Z,61.96
2023-05-14T06:22:56.348Z,62.63
2023-05-14T06:25:23.710Z,63.24
2023-05-14T06:27:50.994Z,63.69
2023-05-14T06:30:18.276Z,63.90
2023-05-14T06:32:45.707Z,62.59
2023-05-14T06:35:13.001Z,62.04
2023-05-14T06:37:41.405Z,61.08
2023-05-14T06:40:09.036Z,61.93
2023-05-14T06:42:36.352Z,61.36
2023-05-14T06:45:06.045Z,60.52
2023-05-14T06:47:33.517Z,60.94
2023-05-14T06:50:01.979Z,60.40
2023-05-14T06:52:29.302Z,59.82
2023-05-14T06:54:56.530Z,59.40
2023-05-14T06:57:23.864Z,59.57
2023-05-14T06:59:51.106Z,59.73
2023-05-14T07:02:18.344Z,60.00
2023-05-14T07:04:46.653Z,59.71
2023-05-14T07:07:15.557Z,59.63
2023-05-14T07:09:42.825Z,60.29
2023-05-14T07:12:10.099Z,59.40
2023-05-14T07:14:37.694Z,59.06
2023-05-14T07:17:04.977Z,58.39
2023-05-14T07:19:32.323Z,58.63
2023-05-14T07:21:59.665Z,58.17
2023-05-14T07:24:27.017Z,57.95
2023-05-14T07:26:55.288Z,57.98
2023-05-14T07:29:22.673Z,58.66
2023-05-14T07:31:49.991Z,58.08
2023-05-14T07:34:17.359Z,57.04
2023-05-14T07:36:44.637Z,57.14
2023-05-14T07:39:11.910Z,57.40
2023-05-14T07:41:39.252Z,56.17
2023-05-14T07:44:06.528Z,56.10
2023-05-14T07:46:33.760Z,57.01
2023-05-14T07:49:01.026Z,56.64
2023-05-14T07:51:28.550Z,55.27
2023-05-14T07:53:55.902Z,57.01
2023-05-14T07:56:23.219Z,55.82
2023-05-14T07:58:51.137Z,55.75
2023-05-14T08:01:18.419Z,55.26
2023-05-14T08:03:45.893Z,55.63
2023-05-14T08:06:13.292Z,55.72
2023-05-14T08:08:40.932Z,55.72
2023-05-14T08:11:08.267Z,54.42
2023-05-14T08:13:35.543Z,54.36
2023-05-14T08:16:02.830Z,54.05
2023-05-14T08:18:30.134Z,54.33
2023-05-14T08:20:57.894Z,53.86
2023-05-14T08:23:25.381Z,53.57
2023-05-14T08:25:52.592Z,53.01
2023-05-14T08:28:20.058Z,53.22
2023-05-14T08:30:47.638Z,53.26
2023-05-14T08:33:14.997Z,53.06
2023-05-14T08:35:42.303Z,52.94
2023-05-14T08:38:09.570Z,52.20
2023-05-14T08:40:36.828Z,51.89
2023-05-14T08:43:04.086Z,51.33
2023-05-14T08:45:34.471Z,50.80
2023-05-14T08:48:02.120Z,50.50
2023-05-14T08:50:30.587Z,50.28
2023-05-14T08:52:58.213Z,51.71
2023-05-14T08:55:26.223Z,51.60
2023-05-14T08:57:53.787Z,50.35
2023-05-14T09:00:21.263Z,49.98
2023-05-14T09:02:48.629Z,49.54
2023-05-14T09:05:15.971Z,49.07
2023-05-14T09:07:43.205Z,49.46
2023-05-14T09:10:10.498Z,48.50
2023-05-14T09:12:37.776Z,48.05
2023-05-14T09:15:06.505Z,47.96
2023-05-14T09:17:33.880Z,47.86
2023-05-14T09:20:01.171Z,47.94
2023-05-14T09:22:29.237Z,47.50
2023-05-14T09:25:07.178Z,46.92
2023-05-14T09:27:34.470Z,47.00
2023-05-14T09:30:19.816Z,47.02
2023-05-14T09:32:49.165Z,46.87
2023-05-14T09:35:21.008Z,47.33
2023-05-14T09:37:52.491Z,47.48
2023-05-14T09:40:24.418Z,47.46
2023-05-14T09:42:52.285Z,46.49
2023-05-14T09:45:19.594Z,46.94
2023-05-14T09:47:46.969Z,47.45
2023-05-14T09:50:14.343Z,47.17
2023-05-14T09:52:42.088Z,47.49
2023-05-14T09:55:09.622Z,46.58
2023-05-14T09:57:37.275Z,45.43
2023-05-14T10:00:05.066Z,44.44
2023-05-14T10:02:41.158Z,43.30
2023-05-14T10:05:09.531Z,43.94
2023-05-14T10:07:42.734Z,42.66
2023-05-14T10:10:13.703Z,42.54
2023-05-14T10:12:40.991Z,43.28
2023-05-14T10:15:18.310Z,43.02
2023-05-14T10:18:03.212Z,41.96
2023-05-14T10:20:30.499Z,41.34
2023-05-14T10:22:58.478Z,42.13
2023-05-14T10:25:25.777Z,42.51
2023-05-14T10:27:53.288Z,43.19
2023-05-14T10:30:21.846Z,42.86
2023-05-14T10:32:49.208Z,42.47
2023-05-14T10:35:22.241Z,42.63
2023-05-14T10:37:51.240Z,42.54
2023-05-14T10:40:19.417Z,41.82
2023-05-14T10:42:46.971Z,42.13
2023-05-14T10:45:14.902Z,42.38
2023-05-14T10:47:43.411Z,41.55
2023-05-14T10:50:11.509Z,41.19
2023-05-14T10:52:40.823Z,41.58
2023-05-14T10:55:08.396Z,41.12
2023-05-14T10:57:37.814Z,41.57
2023-05-14T11:00:07.816Z,41.43
2023-05-14T11:02:38.347Z,41.45
2023-05-14T11:05:08.585Z,41.88
2023-05-14T11:07:37.984Z,41.28
2023-05-14T11:10:06.751Z,41.10
2023-05-14T11:12:34.790Z,40.87
2023-05-14T11:15:04.352Z,40.50
2023-05-14T11:17:31.796Z,40.81
2023-05-14T11:19:59.240Z,40.83
2023-05-14T11:22:26.682Z,40.82
2023-05-14T11:24:53.997Z,41.15
2023-05-14T11:27:21.655Z,41.19
2023-05-14T11:29:48.958Z,40.89
2023-05-14T11:32:16.711Z,40.75
2023-05-14T11:34:47.074Z,40.56
2023-05-14T11:37:15.323Z,40.46
2023-05-14T11:39:53.461Z,40.72
2023-05-14T11:42:21.452Z,40.59
2023-05-14T11:44:50.004Z,40.72
2023-05-14T11:47:18.408Z,40.85
2023-05-14T11:49:45.780Z,41.06
2023-05-14T11:52:16.330Z,41.11
2023-05-14T11:54:44.336Z,40.58
2023-05-14T11:57:13.575Z,40.91
2023-05-14T11:59:41.141Z,40.80
2023-05-14T12:02:18.085Z,40.99
2023-05-14T12:04:45.824Z,40.47
2023-05-14T12:07:15.040Z,40.59
2023-05-14T12:09:49.754Z,40.44
2023-05-14T12:12:23.240Z,40.41
2023-05-14T12:14:50.695Z,40.68
2023-05-14T12:17:19.576Z,40.91
2023-05-14T12:19:48.617Z,41.50
2023-05-14T12:22:18.421Z,41.00
2023-05-14T12:24:55.394Z,40.93
2023-05-14T12:27:24.552Z,41.11
2023-05-14T12:30:20.060Z,41.86
2023-05-14T12:32:52.740Z,42.30
2023-05-14T12:35:21.547Z,42.60
2023-05-14T12:37:49.007Z,42.03
2023-05-14T12:40:16.308Z,44.51
2023-05-14T12:42:43.591Z,44.11
2023-05-14T12:45:11.447Z,43.79
2023-05-14T12:47:38.895Z,44.55
2023-05-14T12:50:06.993Z,42.73
2023-05-14T12:52:38.850Z,43.70
2023-05-14T12:55:08.956Z,43.27
2023-05-14T12:57:37.157Z,43.19
2023-05-14T13:00:08.505Z,42.72
2023-05-14T13:02:42.752Z,42.20
2023-05-14T13:05:11.778Z,42.12
2023-05-14T13:07:39.265Z,42.50
2023-05-14T13:10:07.138Z,43.54
2023-05-14T13:12:34.538Z,44.15
2023-05-14T13:15:01.948Z,45.37
2023-05-14T13:17:29.316Z,47.79
2023-05-14T13:19:56.624Z,48.63
2023-05-14T13:22:23.897Z,49.06
2023-05-14T13:24:51.123Z,51.46
2023-05-14T13:27:18.392Z,51.15
2023-05-14T13:29:45.670Z,52.77
2023-05-14T13:32:12.957Z,53.39
2023-05-14T13:34:40.267Z,51.58
2023-05-14T13:37:07.585Z,50.28
2023-05-14T13:39:34.955Z,51.93
2023-05-14T13:42:02.349Z,50.43
2023-05-14T13:44:29.605Z,50.36
2023-05-14T13:46:56.936Z,51.34
2023-05-14T13:49:24.202Z,51.72
2023-05-14T13:51:51.493Z,50.18
2023-05-14T13:54:18.722Z,50.20
2023-05-14T13:56:46.031Z,51.49
2023-05-14T13:59:13.302Z,52.79
2023-05-14T14:01:40.563Z,51.78
2023-05-14T14:04:07.828Z,52.86
2023-05-14T14:06:35.069Z,52.36
2023-05-14T14:09:02.342Z,52.14
2023-05-14T14:11:29.639Z,53.29
2023-05-14T14:13:56.898Z,52.97
2023-05-14T14:16:24.218Z,54.04
2023-05-14T14:18:51.512Z,56.21
2023-05-14T14:21:20.803Z,55.72
2023-05-14T14:23:48.253Z,56.86
2023-05-14T14:26:15.822Z,56.98
2023-05-14T14:28:43.248Z,57.13
2023-05-14T14:31:11.090Z,57.44
2023-05-14T14:33:38.500Z,57.55
2023-05-14T14:36:06.244Z,58.58
2023-05-14T14:38:33.531Z,59.41
2023-05-14T14:41:03.224Z,59.08
2023-05-14T14:43:30.661Z,60.63
2023-05-14T14:45:58.100Z,61.03
2023-05-14T14:48:34.044Z,63.67
2023-05-14T14:51:01.636Z,64.99
2023-05-14T14:53:28.968Z,66.02
2023-05-14T14:55:56.450Z,67.17
2023-05-14T14:58:23.904Z,68.32
2023-05-14T15:00:52.081Z,68.48
2023-05-14T15:03:19.599Z,70.26
2023-05-14T15:05:47.215Z,71.18
2023-05-14T15:08:14.681Z,71.57
2023-05-14T15:10:41.998Z,71.70
2023-05-14T15:13:09.272Z,73.13
2023-05-14T15:15:37.452Z,73.93
2023-05-14T15:18:04.974Z,74.90
2023-05-14T15:20:32.322Z,75.56
2023-05-14T15:22:59.585Z,76.65
2023-05-14T15:25:27.081Z,75.98
2023-05-14T15:27:54.459Z,78.51
2023-05-14T15:30:21.842Z,78.89
2023-05-14T15:32:49.155Z,79.81
2023-05-14T15:35:16.657Z,79.04
2023-05-14T15:37:44.665Z,79.56
2023-05-14T15:40:12.582Z,80.63
2023-05-14T15:42:42.537Z,80.74
2023-05-14T15:45:10.985Z,80.97
2023-05-14T15:47:38.359Z,81.55
2023-05-14T15:50:06.465Z,80.47
2023-05-14T15:52:34.170Z,81.12
2023-05-14T15:55:01.463Z,82.36
2023-05-14T15:57:28.811Z,81.51
2023-05-14T15:59:56.927Z,80.86
2023-05-14T16:02:24.313Z,82.11
2023-05-14T16:04:51.687Z,83.34
2023-05-14T16:07:19.057Z,83.34
2023-05-14T16:09:46.368Z,83.70
2023-05-14T16:12:14.418Z,83.03
2023-05-14T16:14:42.162Z,83.86
2023-05-14T16:17:09.489Z,84.63
2023-05-14T16:19:39.583Z,85.10
2023-05-14T16:22:06.905Z,84.63
2023-05-14T16:24:34.230Z,85.25
2023-05-14T16:27:01.603Z,85.52
2023-05-14T16:29:28.872Z,86.30
2023-05-14T16:31:56.300Z,86.29
2023-05-14T16:34:23.583Z,86.36
2023-05-14T16:36:51.021Z,86.86
2023-05-14T16:39:18.373Z,87.19
2023-05-14T16:41:45.631Z,87.75
2023-05-14T16:44:12.934Z,87.58
2023-05-14T16:46:40.345Z,87.49
2023-05-14T16:49:07.653Z,86.32
2023-05-14T16:51:35.042Z,85.08
2023-05-14T16:54:02.340Z,86.02
2023-05-14T16:56:30.389Z,86.40
2023-05-14T16:58:57.860Z,85.96
2023-05-14T17:01:25.629Z,85.08
2023-05-14T17:03:52.932Z,85.84
2023-05-14T17:06:20.354Z,86.23
2023-05-14T17:08:47.687Z,85.69
2023-05-14T17:11:15.054Z,86.01
2023-05-14T17:13:42.384Z,85.68
2023-05-14T17:16:09.684Z,86.65
2023-05-14T17:18:38.080Z,87.08
2023-05-14T17:21:07.542Z,86.12
2023-05-14T17:23:34.978Z,84.93
2023-05-14T17:26:02.525Z,85.90
2023-05-14T17:28:30.138Z,85.62
2023-05-14T17:30:57.503Z,85.36
2023-05-14T17:33:24.887Z,86.07
2023-05-14T17:35:52.223Z,86.34
2023-05-14T17:38:19.624Z,88.27
2023-05-14T17:40:46.911Z,87.38
2023-05-14T17:43:14.331Z,87.38
2023-05-14T17:45:53.030Z,87.09
2023-05-14T17:48:24.198Z,87.09
2023-05-14T17:50:54.543Z,87.28
2023-05-14T17:53:21.883Z,86.92
2023-05-14T17:55:50.160Z,86.92
2023-05-14T17:58:17.513Z,87.37
2023-05-14T18:00:44.897Z,88.98
2023-05-14T18:03:14.162Z,89.20
2023-05-14T18:05:41.621Z,89.65
2023-05-14T18:08:09.637Z,88.82
2023-05-14T18:10:36.916Z,89.03
2023-05-14T18:13:04.227Z,90.81
2023-05-14T18:15:31.673Z,90.59
2023-05-14T18:17:59.132Z,90.59
2023-05-14T18:20:26.525Z,90.26
2023-05-14T18:22:53.860Z,90.57
2023-05-14T18:25:21.136Z,90.61
2023-05-14T18:27:48.467Z,90.15
2023-05-14T18:30:16.008Z,89.98
2023-05-14T18:32:45.762Z,90.39
2023-05-14T18:35:13.287Z,89.76
2023-05-14T18:37:41.091Z,89.85
2023-05-14T18:40:08.957Z,90.45
2023-05-14T18:42:36.227Z,91.03
2023-05-14T18:45:04.242Z,90.07
2023-05-14T18:47:32.250Z,90.99
2023-05-14T18:50:01.920Z,90.26
2023-05-14T18:52:29.554Z,90.43
2023-05-14T18:54:56.962Z,91.00
2023-05-14T18:57:24.233Z,91.17
2023-05-14T18:59:51.477Z,91.48
2023-05-14T19:02:18.844Z,90.68
2023-05-14T19:07:16.820Z,91.22
2023-05-14T19:09:44.154Z,91.39
2023-05-14T19:12:11.506Z,90.48
2023-05-14T19:14:38.794Z,89.92
2023-05-14T19:17:06.093Z,89.78
2023-05-14T19:19:33.362Z,89.88
2023-05-14T19:22:00.646Z,90.00
2023-05-14T19:24:27.942Z,90.42
2023-05-14T19:26:55.648Z,90.79
2023-05-14T19:29:22.908Z,91.19
2023-05-14T19:31:50.295Z,90.66
2023-05-14T19:34:17.602Z,90.10
2023-05-14T19:36:44.953Z,90.15
2023-05-14T19:39:13.278Z,90.21
2023-05-14T19:41:40.744Z,90.04
2023-05-14T19:44:08.017Z,89.80
2023-05-14T19:46:35.402Z,89.61
2023-05-14T19:49:02.678Z,89.49
2023-05-14T19:51:29.997Z,89.68
2023-05-14T19:53:57.306Z,90.19
2023-05-14T19:56:26.424Z,89.97
2023-05-14T19:58:54.650Z,90.13
2023-05-14T20:01:22.102Z,89.35
2023-05-14T20:03:49.504Z,89.42
2023-05-14T20:06:17.597Z,90.06
2023-05-14T20:08:47.818Z,90.31
2023-05-14T20:11:15.833Z,90.00
2023-05-14T20:13:43.239Z,91.04
2023-05-14T20:16:10.625Z,89.84
2023-05-14T20:18:37.935Z,90.83
2023-05-14T20:21:05.583Z,90.43
2023-05-14T20:23:33.698Z,90.27
2023-05-14T20:26:04.131Z,89.82
2023-05-14T20:28:31.451Z,89.86
2023-05-14T20:30:59.067Z,89.38
2023-05-14T20:33:27.096Z,89.98
2023-05-14T20:35:54.415Z,90.40
2023-05-14T20:38:21.993Z,90.52
2023-05-14T20:40:49.342Z,91.04
2023-05-14T20:43:16.717Z,90.02
2023-05-14T20:45:43.996Z,90.09
2023-05-14T20:48:15.059Z,90.00
2023-05-14T20:50:42.962Z,90.90
2023-05-14T20:53:10.401Z,91.56
2023-05-14T20:55:37.709Z,90.00
2023-05-14T20:58:05.052Z,90.00
2023-05-14T21:00:32.387Z,91.25
2023-05-14T21:03:00.455Z,91.27
2023-05-14T21:05:28.066Z,91.70
2023-05-14T21:07:55.419Z,91.16
2023-05-14T21:10:22.963Z,90.58
2023-05-14T21:12:50.255Z,91.14
2023-05-14T21:15:17.535Z,90.31
2023-05-14T21:17:45.017Z,91.49
2023-05-14T21:20:13.608Z,90.78
2023-05-14T21:22:40.920Z,91.41
2023-05-14T21:25:08.664Z,90.83
2023-05-14T21:27:35.954Z,90.58
2023-05-14T21:30:03.316Z,90.48
2023-05-14T21:32:30.702Z,90.83
2023-05-14T21:34:58.116Z,92.38
2023-05-14T21:37:25.354Z,91.12
2023-05-14T21:39:52.646Z,91.08
2023-05-14T21:42:21.120Z,91.37
2023-05-14T21:44:48.447Z,91.65
2023-05-14T21:47:16.184Z,92.33
2023-05-14T21:49:43.720Z,92.77
2023-05-14T21:52:11.305Z,93.03
2023-05-14T21:54:38.622Z,93.14
2023-05-14T21:57:06.466Z,92.88
2023-05-14T21:59:33.992Z,91.89
2023-05-14T22:04:31.509Z,90.89
2023-05-14T22:06:58.789Z,91.37
2023-05-14T22:09:26.440Z,91.67
2023-05-14T22:11:53.730Z,91.81
2023-05-14T22:14:20.993Z,92.49
2023-05-14T22:16:48.470Z,92.78
2023-05-14T22:19:16.661Z,92.58
2023-05-14T22:21:44.014Z,92.17
2023-05-14T22:24:11.258Z,92.00
2023-05-14T22:26:38.511Z,91.44
2023-05-14T22:29:05.782Z,91.53
2023-05-14T22:31:33.181Z,92.31
2023-05-14T22:34:00.493Z,91.74
2023-05-14T22:36:27.904Z,92.73
2023-05-14T22:38:55.256Z,92.67
2023-05-14T22:41:22.548Z,91.73
2023-05-14T22:43:50.923Z,92.74
2023-05-14T22:46:18.421Z,93.18
2023-05-14T22:48:46.135Z,92.63
2023-05-14T22:51:13.424Z,92.39
2023-05-14T22:53:40.683Z,92.88
2023-05-14T22:56:08.035Z,93.14
2023-05-14T22:58:35.656Z,93.46
2023-05-14T23:01:03.356Z,93.48
2023-05-14T23:03:30.846Z,92.70
2023-05-14T23:05:58.220Z,92.95
2023-05-14T23:08:25.663Z,92.58
2023-05-14T23:10:53.068Z,92.72
2023-05-14T23:13:20.506Z,92.57
2023-05-14T23:15:48.851Z,92.83
2023-05-14T23:18:16.273Z,92.36
2023-05-14T23:20:43.885Z,91.96
2023-05-14T23:23:11.354Z,91.92
2023-05-14T23:25:38.692Z,91.75
2023-05-14T23:28:06.337Z,92.22
2023-05-14T23:30:33.643Z,91.72
2023-05-14T23:33:01.048Z,91.88
2023-05-14T23:35:28.393Z,91.90
2023-05-14T23:37:55.689Z,92.56
2023-05-14T23:40:22.999Z,91.54
2023-05-14T23:42:50.699Z,92.10
2023-05-14T23:45:18.037Z,92.61
2023-05-14T23:47:45.457Z,91.93
2023-05-14T23:50:12.750Z,92.46
2023-05-14T23:52:40.317Z,92.84
2023-05-14T23:55:07.891Z,92.67
2023-05-14T23:57:35.497Z,92.55
